sensor_id;sensor_type;location;lat;lon;timestamp;temperature;humidity
65040;HTU21D;51606;45.000;38.612;2023-05-07T06:53:42;17.89;64.53
65040;HTU21D;51606;45.000;38.612;2023-05-07T06:56:11;17.90;64.59
65040;HTU21D;51606;45.000;38.612;2023-05-07T06:58:38;17.96;64.55
65040;HTU21D;51606;45.000;38.612;2023-05-07T07:01:06;17.92;64.59
65040;HTU21D;51606;45.000;38.612;2023-05-07T07:03:34;17.91;64.72
65040;HTU21D;51606;45.000;38.612;2023-05-07T07:06:01;17.93;64.63
65040;HTU21D;51606;45.000;38.612;2023-05-07T07:08:28;17.91;64.73
65040;HTU21D;51606;45.000;38.612;2023-05-07T07:10:55;17.89;64.72
65040;HTU21D;51606;45.000;38.612;2023-05-07T07:13:22;17.85;64.79
65040;HTU21D;51606;45.000;38.612;2023-05-07T07:15:48;17.84;64.85
65040;HTU21D;51606;45.000;38.612;2023-05-07T07:18:17;17.80;64.90
65040;HTU21D;51606;45.000;38.612;2023-05-07T07:20:45;17.78;64.89
65040;HTU21D;51606;45.000;38.612;2023-05-07T07:23:13;17.68;65.01
65040;HTU21D;51606;45.000;38.612;2023-05-07T07:25:40;17.66;65.17
65040;HTU21D;51606;45.000;38.612;2023-05-07T07:28:07;17.74;65.06
65040;HTU21D;51606;45.000;38.612;2023-05-07T07:30:37;17.77;64.94
65040;HTU21D;51606;45.000;38.612;2023-05-07T07:33:04;17.74;64.90
65040;HTU21D;51606;45.000;38.612;2023-05-07T07:35:35;17.70;64.95
65040;HTU21D;51606;45.000;38.612;2023-05-07T07:38:03;17.67;65.01
65040;HTU21D;51606;45.000;38.612;2023-05-07T07:40:29;17.70;64.98
65040;HTU21D;51606;45.000;38.612;2023-05-07T07:42:56;17.73;64.94
65040;HTU21D;51606;45.000;38.612;2023-05-07T07:45:23;17.76;64.95
65040;HTU21D;51606;45.000;38.612;2023-05-07T07:47:51;17.79;64.98
65040;HTU21D;51606;45.000;38.612;2023-05-07T07:50:18;17.76;64.90
65040;HTU21D;51606;45.000;38.612;2023-05-07T07:52:44;17.73;65.02
65040;HTU21D;51606;45.000;38.612;2023-05-07T07:55:14;17.75;64.95
65040;HTU21D;51606;45.000;38.612;2023-05-07T07:57:47;17.82;64.91
65040;HTU21D;51606;45.000;38.612;2023-05-07T08:00:14;17.94;64.75
65040;HTU21D;51606;45.000;38.612;2023-05-07T08:02:44;18.00;64.66
65040;HTU21D;51606;45.000;38.612;2023-05-07T08:05:18;18.06;64.56
65040;HTU21D;51606;45.000;38.612;2023-05-07T08:07:47;18.10;64.58
65040;HTU21D;51606;45.000;38.612;2023-05-07T08:10:21;18.18;64.48
65040;HTU21D;51606;45.000;38.612;2023-05-07T08:12:51;18.24;64.43
65040;HTU21D;51606;45.000;38.612;2023-05-07T08:15:19;18.32;64.37
65040;HTU21D;51606;45.000;38.612;2023-05-07T08:17:46;18.37;64.26
65040;HTU21D;51606;45.000;38.612;2023-05-07T08:20:13;18.47;64.24
65040;HTU21D;51606;45.000;38.612;2023-05-07T08:22:40;18.58;64.07
65040;HTU21D;51606;45.000;38.612;2023-05-07T08:25:07;18.63;64.05
65040;HTU21D;51606;45.000;38.612;2023-05-07T08:27:34;18.69;63.96
65040;HTU21D;51606;45.000;38.612;2023-05-07T08:30:01;18.72;63.98
65040;HTU21D;51606;45.000;38.612;2023-05-07T08:32:27;18.80;63.95
65040;HTU21D;51606;45.000;38.612;2023-05-07T08:34:54;18.89;63.79
65040;HTU21D;51606;45.000;38.612;2023-05-07T08:37:21;18.96;63.75
65040;HTU21D;51606;45.000;38.612;2023-05-07T08:39:47;19.03;63.66
65040;HTU21D;51606;45.000;38.612;2023-05-07T08:42:20;19.15;63.54
65040;HTU21D;51606;45.000;38.612;2023-05-07T08:44:51;19.25;63.41
65040;HTU21D;51606;45.000;38.612;2023-05-07T08:47:29;19.39;63.24
65040;HTU21D;51606;45.000;38.612;2023-05-07T08:49:59;19.44;63.23
65040;HTU21D;51606;45.000;38.612;2023-05-07T08:52:26;19.55;63.14
65040;HTU21D;51606;45.000;38.612;2023-05-07T08:54:53;19.67;63.00
65040;HTU21D;51606;45.000;38.612;2023-05-07T08:57:19;19.83;62.88
65040;HTU21D;51606;45.000;38.612;2023-05-07T08:59:48;20.00;62.69
65040;HTU21D;51606;45.000;38.612;2023-05-07T09:02:14;20.19;62.51
65040;HTU21D;51606;45.000;38.612;2023-05-07T09:04:42;20.39;62.31
65040;HTU21D;51606;45.000;38.612;2023-05-07T09:07:09;20.43;62.18
65040;HTU21D;51606;45.000;38.612;2023-05-07T09:09:40;20.39;62.43
65040;HTU21D;51606;45.000;38.612;2023-05-07T09:12:08;20.43;62.39
65040;HTU21D;51606;45.000;38.612;2023-05-07T09:14:35;20.31;62.44
65040;HTU21D;51606;45.000;38.612;2023-05-07T09:17:04;20.19;62.66
65040;HTU21D;51606;45.000;38.612;2023-05-07T09:19:30;20.16;62.75
65040;HTU21D;51606;45.000;38.612;2023-05-07T09:22:05;20.12;62.74
65040;HTU21D;51606;45.000;38.612;2023-05-07T09:24:50;20.01;62.86
65040;HTU21D;51606;45.000;38.612;2023-05-07T09:27:20;19.92;62.92
65040;HTU21D;51606;45.000;38.612;2023-05-07T09:29:47;19.87;63.02
65040;HTU21D;51606;45.000;38.612;2023-05-07T09:32:15;19.97;62.98
65040;HTU21D;51606;45.000;38.612;2023-05-07T09:34:42;20.01;62.77
65040;HTU21D;51606;45.000;38.612;2023-05-07T09:37:12;20.02;62.81
65040;HTU21D;51606;45.000;38.612;2023-05-07T09:39:46;19.94;62.95
65040;HTU21D;51606;45.000;38.612;2023-05-07T09:42:16;19.90;62.95
65040;HTU21D;51606;45.000;38.612;2023-05-07T09:44:47;19.87;63.05
65040;HTU21D;51606;45.000;38.612;2023-05-07T09:47:19;19.75;63.09
65040;HTU21D;51606;45.000;38.612;2023-05-07T09:49:50;19.60;63.30
65040;HTU21D;51606;45.000;38.612;2023-05-07T09:52:21;19.53;63.38
65040;HTU21D;51606;45.000;38.612;2023-05-07T09:54:52;19.58;63.34
65040;HTU21D;51606;45.000;38.612;2023-05-07T09:57:24;19.52;63.35
65040;HTU21D;51606;45.000;38.612;2023-05-07T09:59:58;19.51;63.39
65040;HTU21D;51606;45.000;38.612;2023-05-07T10:02:29;19.43;63.50
65040;HTU21D;51606;45.000;38.612;2023-05-07T10:04:57;19.31;63.69
65040;HTU21D;51606;45.000;38.612;2023-05-07T10:07:30;19.27;63.79
65040;HTU21D;51606;45.000;38.612;2023-05-07T10:10:03;19.17;63.90
65040;HTU21D;51606;45.000;38.612;2023-05-07T10:12:36;19.05;64.08
65040;HTU21D;51606;45.000;38.612;2023-05-07T10:15:13;18.95;64.25
65040;HTU21D;51606;45.000;38.612;2023-05-07T10:17:44;18.92;64.27
65040;HTU21D;51606;45.000;38.612;2023-05-07T10:20:12;18.94;64.14
65040;HTU21D;51606;45.000;38.612;2023-05-07T10:22:47;18.89;64.21
65040;HTU21D;51606;45.000;38.612;2023-05-07T10:25:25;18.91;64.19
65040;HTU21D;51606;45.000;38.612;2023-05-07T10:27:57;18.94;64.05
65040;HTU21D;51606;45.000;38.612;2023-05-07T10:33:04;18.96;63.91
65040;HTU21D;51606;45.000;38.612;2023-05-07T10:35:42;18.98;63.97
65040;HTU21D;51606;45.000;38.612;2023-05-07T10:38:10;19.00;63.86
65040;HTU21D;51606;45.000;38.612;2023-05-07T10:40:40;18.98;63.87
65040;HTU21D;51606;45.000;38.612;2023-05-07T10:43:08;18.91;64.02
65040;HTU21D;51606;45.000;38.612;2023-05-07T10:45:40;18.88;64.06
65040;HTU21D;51606;45.000;38.612;2023-05-07T10:48:09;18.88;64.11
65040;HTU21D;51606;45.000;38.612;2023-05-07T10:50:37;18.92;64.09
65040;HTU21D;51606;45.000;38.612;2023-05-07T10:55:52;18.94;64.05
65040;HTU21D;51606;45.000;38.612;2023-05-07T10:58:44;18.84;64.18
65040;HTU21D;51606;45.000;38.612;2023-05-07T11:01:53;18.79;64.33
65040;HTU21D;51606;45.000;38.612;2023-05-07T11:04:44;18.62;64.52
65040;HTU21D;51606;45.000;38.612;2023-05-07T11:07:30;18.43;64.83
65040;HTU21D;51606;45.000;38.612;2023-05-07T11:10:02;18.36;64.98
65040;HTU21D;51606;45.000;38.612;2023-05-07T11:15:40;18.15;65.28
65040;HTU21D;51606;45.000;38.612;2023-05-07T11:18:18;18.05;65.33
65040;HTU21D;51606;45.000;38.612;2023-05-07T11:20:49;18.00;65.43
65040;HTU21D;51606;45.000;38.612;2023-05-07T11:26:24;17.90;65.49
65040;HTU21D;51606;45.000;38.612;2023-05-07T11:28:52;17.92;65.45
65040;HTU21D;51606;45.000;38.612;2023-05-07T11:31:27;17.91;65.51
65040;HTU21D;51606;45.000;38.612;2023-05-07T11:33:57;17.88;65.47
65040;HTU21D;51606;45.000;38.612;2023-05-07T11:36:24;17.88;65.49
65040;HTU21D;51606;45.000;38.612;2023-05-07T11:38:53;17.88;65.47
65040;HTU21D;51606;45.000;38.612;2023-05-07T11:41:20;17.89;65.52
65040;HTU21D;51606;45.000;38.612;2023-05-07T11:43:55;17.82;65.65
65040;HTU21D;51606;45.000;38.612;2023-05-07T11:46:22;17.76;65.73
65040;HTU21D;51606;45.000;38.612;2023-05-07T11:48:49;17.69;65.85
65040;HTU21D;51606;45.000;38.612;2023-05-07T11:51:20;17.59;66.01
65040;HTU21D;51606;45.000;38.612;2023-05-07T11:53:47;17.51;66.12
65040;HTU21D;51606;45.000;38.612;2023-05-07T11:56:16;17.45;66.29
65040;HTU21D;51606;45.000;38.612;2023-05-07T11:58:48;17.41;66.27
65040;HTU21D;51606;45.000;38.612;2023-05-07T12:01:16;17.38;66.36
65040;HTU21D;51606;45.000;38.612;2023-05-07T12:03:43;17.36;66.40
65040;HTU21D;51606;45.000;38.612;2023-05-07T12:06:14;17.28;66.54
65040;HTU21D;51606;45.000;38.612;2023-05-07T12:08:42;17.22;66.75
65040;HTU21D;51606;45.000;38.612;2023-05-07T12:11:14;17.19;66.86
65040;HTU21D;51606;45.000;38.612;2023-05-07T12:13:41;17.19;66.82
65040;HTU21D;51606;45.000;38.612;2023-05-07T12:16:08;17.22;66.78
65040;HTU21D;51606;45.000;38.612;2023-05-07T12:18:36;17.28;66.71
65040;HTU21D;51606;45.000;38.612;2023-05-07T12:21:05;17.34;66.59
65040;HTU21D;51606;45.000;38.612;2023-05-07T12:23:34;17.32;66.69
65040;HTU21D;51606;45.000;38.612;2023-05-07T12:26:01;17.28;66.87
65040;HTU21D;51606;45.000;38.612;2023-05-07T12:28:36;17.23;67.06
65040;HTU21D;51606;45.000;38.612;2023-05-07T12:31:03;17.22;67.14
65040;HTU21D;51606;45.000;38.612;2023-05-07T12:33:30;17.20;67.23
65040;HTU21D;51606;45.000;38.612;2023-05-07T12:36:00;17.21;67.27
65040;HTU21D;51606;45.000;38.612;2023-05-07T12:38:37;17.26;67.31
65040;HTU21D;51606;45.000;38.612;2023-05-07T12:41:05;17.30;67.23
65040;HTU21D;51606;45.000;38.612;2023-05-07T12:43:33;17.34;67.26
65040;HTU21D;51606;45.000;38.612;2023-05-07T12:46:03;17.39;67.32
65040;HTU21D;51606;45.000;38.612;2023-05-07T12:48:30;17.43;67.23
65040;HTU21D;51606;45.000;38.612;2023-05-07T12:51:00;17.50;67.22
65040;HTU21D;51606;45.000;38.612;2023-05-07T13:04:27;17.28;67.42
65040;HTU21D;51606;45.000;38.612;2023-05-07T13:06:54;17.16;67.78
65040;HTU21D;51606;45.000;38.612;2023-05-07T13:09:21;17.03;68.08
65040;HTU21D;51606;45.000;38.612;2023-05-07T13:11:47;16.93;68.30
65040;HTU21D;51606;45.000;38.612;2023-05-07T13:14:14;16.84;68.60
65040;HTU21D;51606;45.000;38.612;2023-05-07T13:16:41;16.77;68.74
65040;HTU21D;51606;45.000;38.612;2023-05-07T13:19:07;16.70;68.91
65040;HTU21D;51606;45.000;38.612;2023-05-07T13:21:34;16.60;69.22
65040;HTU21D;51606;45.000;38.612;2023-05-07T13:24:00;16.52;69.33
65040;HTU21D;51606;45.000;38.612;2023-05-07T13:26:27;16.49;69.33
65040;HTU21D;51606;45.000;38.612;2023-05-07T13:28:56;16.51;69.35
65040;HTU21D;51606;45.000;38.612;2023-05-07T13:31:23;16.54;69.23
65040;HTU21D;51606;45.000;38.612;2023-05-07T13:33:49;16.52;69.28
65040;HTU21D;51606;45.000;38.612;2023-05-07T13:36:16;16.51;69.31
65040;HTU21D;51606;45.000;38.612;2023-05-07T13:38:42;16.47;69.42
65040;HTU21D;51606;45.000;38.612;2023-05-07T13:41:09;16.41;69.65
65040;HTU21D;51606;45.000;38.612;2023-05-07T13:43:36;16.37;69.75
65040;HTU21D;51606;45.000;38.612;2023-05-07T13:46:02;16.34;69.81
65040;HTU21D;51606;45.000;38.612;2023-05-07T13:48:29;16.31;69.87
65040;HTU21D;51606;45.000;38.612;2023-05-07T13:50:55;16.28;69.97
65040;HTU21D;51606;45.000;38.612;2023-05-07T13:53:22;16.26;70.04
65040;HTU21D;51606;45.000;38.612;2023-05-07T13:55:48;16.19;70.17
65040;HTU21D;51606;45.000;38.612;2023-05-07T13:58:14;16.18;70.19
65040;HTU21D;51606;45.000;38.612;2023-05-07T14:00:41;16.18;70.19
65040;HTU21D;51606;45.000;38.612;2023-05-07T14:03:07;16.21;70.13
65040;HTU21D;51606;45.000;38.612;2023-05-07T14:05:34;16.21;70.10
65040;HTU21D;51606;45.000;38.612;2023-05-07T14:08:01;16.22;70.12
65040;HTU21D;51606;45.000;38.612;2023-05-07T14:10:29;16.24;70.11
65040;HTU21D;51606;45.000;38.612;2023-05-07T14:12:56;16.26;70.28
65040;HTU21D;51606;45.000;38.612;2023-05-07T14:15:22;16.25;70.24
65040;HTU21D;51606;45.000;38.612;2023-05-07T14:17:49;16.27;70.29
65040;HTU21D;51606;45.000;38.612;2023-05-07T14:20:15;16.29;70.45
65040;HTU21D;51606;45.000;38.612;2023-05-07T14:22:42;16.29;70.46
65040;HTU21D;51606;45.000;38.612;2023-05-07T14:25:09;16.31;70.45
65040;HTU21D;51606;45.000;38.612;2023-05-07T14:27:38;16.32;70.43
65040;HTU21D;51606;45.000;38.612;2023-05-07T14:30:05;16.33;70.47
65040;HTU21D;51606;45.000;38.612;2023-05-07T14:32:33;16.35;70.43
65040;HTU21D;51606;45.000;38.612;2023-05-07T14:34:59;16.36;70.45
65040;HTU21D;51606;45.000;38.612;2023-05-07T14:37:26;16.36;70.51
65040;HTU21D;51606;45.000;38.612;2023-05-07T14:39:52;16.34;70.54
65040;HTU21D;51606;45.000;38.612;2023-05-07T14:42:19;16.32;70.56
65040;HTU21D;51606;45.000;38.612;2023-05-07T14:44:46;16.29;70.61
65040;HTU21D;51606;45.000;38.612;2023-05-07T14:47:14;16.25;70.68
65040;HTU21D;51606;45.000;38.612;2023-05-07T14:49:41;16.20;70.77
65040;HTU21D;51606;45.000;38.612;2023-05-07T14:52:08;16.15;70.80
65040;HTU21D;51606;45.000;38.612;2023-05-07T14:54:37;16.08;70.93
65040;HTU21D;51606;45.000;38.612;2023-05-07T14:57:05;16.03;71.03
65040;HTU21D;51606;45.000;38.612;2023-05-07T14:59:32;15.98;71.02
65040;HTU21D;51606;45.000;38.612;2023-05-07T15:01:58;15.95;71.06
65040;HTU21D;51606;45.000;38.612;2023-05-07T15:04:25;15.89;71.13
65040;HTU21D;51606;45.000;38.612;2023-05-07T15:06:51;15.88;71.23
65040;HTU21D;51606;45.000;38.612;2023-05-07T15:09:20;15.84;71.30
65040;HTU21D;51606;45.000;38.612;2023-05-07T15:11:46;15.82;71.26
65040;HTU21D;51606;45.000;38.612;2023-05-07T15:14:12;15.81;71.26
65040;HTU21D;51606;45.000;38.612;2023-05-07T15:16:39;15.78;71.29
65040;HTU21D;51606;45.000;38.612;2023-05-07T15:19:05;15.75;71.29
65040;HTU21D;51606;45.000;38.612;2023-05-07T15:21:32;15.73;71.29
65040;HTU21D;51606;45.000;38.612;2023-05-07T15:24:01;15.72;71.31
65040;HTU21D;51606;45.000;38.612;2023-05-07T15:26:27;15.69;71.38
65040;HTU21D;51606;45.000;38.612;2023-05-07T15:28:54;15.68;71.42
65040;HTU21D;51606;45.000;38.612;2023-05-07T15:31:22;15.65;71.39
65040;HTU21D;51606;45.000;38.612;2023-05-07T15:33:49;15.60;71.51
65040;HTU21D;51606;45.000;38.612;2023-05-07T15:36:19;15.59;71.55
65040;HTU21D;51606;45.000;38.612;2023-05-07T15:38:45;15.54;71.53
65040;HTU21D;51606;45.000;38.612;2023-05-07T15:41:12;15.53;71.54
65040;HTU21D;51606;45.000;38.612;2023-05-07T15:43:47;15.51;71.72
65040;HTU21D;51606;45.000;38.612;2023-05-07T15:46:18;15.48;71.75
65040;HTU21D;51606;45.000;38.612;2023-05-07T15:48:44;15.45;71.71
65040;HTU21D;51606;45.000;38.612;2023-05-07T15:51:11;15.43;71.69
65040;HTU21D;51606;45.000;38.612;2023-05-07T15:53:38;15.39;71.74
65040;HTU21D;51606;45.000;38.612;2023-05-07T15:56:06;15.37;71.87
65040;HTU21D;51606;45.000;38.612;2023-05-07T15:58:32;15.32;71.93
65040;HTU21D;51606;45.000;38.612;2023-05-07T16:00:59;15.27;71.93
65040;HTU21D;51606;45.000;38.612;2023-05-07T16:03:29;15.24;72.01
65040;HTU21D;51606;45.000;38.612;2023-05-07T16:05:56;15.18;72.07
65040;HTU21D;51606;45.000;38.612;2023-05-07T16:08:23;15.12;72.14
65040;HTU21D;51606;45.000;38.612;2023-05-07T16:10:50;15.07;72.09
65040;HTU21D;51606;45.000;38.612;2023-05-07T16:13:16;15.01;72.25
65040;HTU21D;51606;45.000;38.612;2023-05-07T16:15:44;14.97;72.19
65040;HTU21D;51606;45.000;38.612;2023-05-07T16:18:11;14.93;72.19
65040;HTU21D;51606;45.000;38.612;2023-05-07T16:20:42;14.86;72.24
65040;HTU21D;51606;45.000;38.612;2023-05-07T16:23:09;14.80;72.28
65040;HTU21D;51606;45.000;38.612;2023-05-07T16:25:35;14.74;72.30
65040;HTU21D;51606;45.000;38.612;2023-05-07T16:28:01;14.69;72.32
65040;HTU21D;51606;45.000;38.612;2023-05-07T16:30:28;14.65;72.40
65040;HTU21D;51606;45.000;38.612;2023-05-07T16:32:55;14.62;72.35
65040;HTU21D;51606;45.000;38.612;2023-05-07T16:35:21;14.56;72.34
65040;HTU21D;51606;45.000;38.612;2023-05-07T16:37:47;14.53;72.45
65040;HTU21D;51606;45.000;38.612;2023-05-07T16:40:14;14.48;72.46
65040;HTU21D;51606;45.000;38.612;2023-05-07T16:42:41;14.43;72.51
65040;HTU21D;51606;45.000;38.612;2023-05-07T16:45:08;14.40;72.51
65040;HTU21D;51606;45.000;38.612;2023-05-07T16:47:34;14.37;72.51
65040;HTU21D;51606;45.000;38.612;2023-05-07T16:50:01;14.33;72.53
65040;HTU21D;51606;45.000;38.612;2023-05-07T16:52:30;14.28;72.51
65040;HTU21D;51606;45.000;38.612;2023-05-07T16:54:57;14.24;72.52
65040;HTU21D;51606;45.000;38.612;2023-05-07T16:57:26;14.20;72.48
65040;HTU21D;51606;45.000;38.612;2023-05-07T16:59:55;14.17;72.54
65040;HTU21D;51606;45.000;38.612;2023-05-07T17:02:22;14.13;72.48
65040;HTU21D;51606;45.000;38.612;2023-05-07T17:04:48;14.10;72.50
65040;HTU21D;51606;45.000;38.612;2023-05-07T17:07:15;14.08;72.50
65040;HTU21D;51606;45.000;38.612;2023-05-07T17:09:42;14.06;72.45
65040;HTU21D;51606;45.000;38.612;2023-05-07T17:12:08;14.06;72.43
65040;HTU21D;51606;45.000;38.612;2023-05-07T17:14:35;14.04;72.41
65040;HTU21D;51606;45.000;38.612;2023-05-07T17:17:01;14.04;72.32
65040;HTU21D;51606;45.000;38.612;2023-05-07T17:19:28;14.00;72.29
65040;HTU21D;51606;45.000;38.612;2023-05-07T17:21:54;13.98;72.32
65040;HTU21D;51606;45.000;38.612;2023-05-07T17:24:21;13.95;72.30
65040;HTU21D;51606;45.000;38.612;2023-05-07T17:26:47;13.94;72.33
65040;HTU21D;51606;45.000;38.612;2023-05-07T17:29:14;13.90;72.29
65040;HTU21D;51606;45.000;38.612;2023-05-07T17:31:40;13.86;72.32
65040;HTU21D;51606;45.000;38.612;2023-05-07T17:34:07;13.84;72.41
65040;HTU21D;51606;45.000;38.612;2023-05-07T17:36:34;13.83;72.32
65040;HTU21D;51606;45.000;38.612;2023-05-07T17:39:00;13.80;72.40
65040;HTU21D;51606;45.000;38.612;2023-05-07T17:41:27;13.78;72.43
65040;HTU21D;51606;45.000;38.612;2023-05-07T17:43:53;13.77;72.42
65040;HTU21D;51606;45.000;38.612;2023-05-07T17:46:20;13.76;72.38
65040;HTU21D;51606;45.000;38.612;2023-05-07T17:48:46;13.74;72.38
65040;HTU21D;51606;45.000;38.612;2023-05-07T17:51:13;13.73;72.41
65040;HTU21D;51606;45.000;38.612;2023-05-07T17:53:39;13.73;72.43
65040;HTU21D;51606;45.000;38.612;2023-05-07T17:56:05;13.70;72.41
65040;HTU21D;51606;45.000;38.612;2023-05-07T17:58:32;13.70;72.44
65040;HTU21D;51606;45.000;38.612;2023-05-07T18:00:59;13.68;72.40
65040;HTU21D;51606;45.000;38.612;2023-05-07T18:03:26;13.66;72.37
65040;HTU21D;51606;45.000;38.612;2023-05-07T18:05:54;13.65;72.45
65040;HTU21D;51606;45.000;38.612;2023-05-07T18:08:20;13.63;72.55
65040;HTU21D;51606;45.000;38.612;2023-05-07T18:10:47;13.61;72.64
65040;HTU21D;51606;45.000;38.612;2023-05-07T18:13:13;13.59;72.67
65040;HTU21D;51606;45.000;38.612;2023-05-07T18:15:40;13.58;72.70
65040;HTU21D;51606;45.000;38.612;2023-05-07T18:18:06;13.54;72.72
65040;HTU21D;51606;45.000;38.612;2023-05-07T18:20:33;13.52;72.67
65040;HTU21D;51606;45.000;38.612;2023-05-07T18:22:59;13.49;72.67
65040;HTU21D;51606;45.000;38.612;2023-05-07T18:25:26;13.47;72.79
65040;HTU21D;51606;45.000;38.612;2023-05-07T18:27:52;13.47;72.77
65040;HTU21D;51606;45.000;38.612;2023-05-07T18:30:19;13.44;72.74
65040;HTU21D;51606;45.000;38.612;2023-05-07T18:32:47;13.43;72.86
65040;HTU21D;51606;45.000;38.612;2023-05-07T18:35:13;13.40;72.77
65040;HTU21D;51606;45.000;38.612;2023-05-07T18:37:42;13.39;72.74
65040;HTU21D;51606;45.000;38.612;2023-05-07T18:40:08;13.36;72.73
65040;HTU21D;51606;45.000;38.612;2023-05-07T18:42:35;13.36;72.69
65040;HTU21D;51606;45.000;38.612;2023-05-07T18:45:01;13.33;72.68
65040;HTU21D;51606;45.000;38.612;2023-05-07T18:47:28;13.31;72.78
65040;HTU21D;51606;45.000;38.612;2023-05-07T18:49:54;13.30;72.71
65040;HTU21D;51606;45.000;38.612;2023-05-07T18:52:21;13.27;72.75
65040;HTU21D;51606;45.000;38.612;2023-05-07T18:54:47;13.24;72.78
65040;HTU21D;51606;45.000;38.612;2023-05-07T18:57:13;13.21;72.80
65040;HTU21D;51606;45.000;38.612;2023-05-07T18:59:41;13.18;72.92
65040;HTU21D;51606;45.000;38.612;2023-05-07T19:02:08;13.14;72.96
65040;HTU21D;51606;45.000;38.612;2023-05-07T19:04:34;13.09;73.03
65040;HTU21D;51606;45.000;38.612;2023-05-07T19:07:01;13.03;73.11
65040;HTU21D;51606;45.000;38.612;2023-05-07T19:09:28;13.00;73.13
65040;HTU21D;51606;45.000;38.612;2023-05-07T19:11:54;12.94;73.19
65040;HTU21D;51606;45.000;38.612;2023-05-07T19:14:21;12.90;73.21
65040;HTU21D;51606;45.000;38.612;2023-05-07T19:16:47;12.87;73.24
65040;HTU21D;51606;45.000;38.612;2023-05-07T19:19:14;12.86;73.30
65040;HTU21D;51606;45.000;38.612;2023-05-07T19:21:40;12.82;73.28
65040;HTU21D;51606;45.000;38.612;2023-05-07T19:24:07;12.78;73.30
65040;HTU21D;51606;45.000;38.612;2023-05-07T19:26:34;12.76;73.30
65040;HTU21D;51606;45.000;38.612;2023-05-07T19:29:00;12.71;73.38
65040;HTU21D;51606;45.000;38.612;2023-05-07T19:31:27;12.67;73.46
65040;HTU21D;51606;45.000;38.612;2023-05-07T19:33:53;12.64;73.47
65040;HTU21D;51606;45.000;38.612;2023-05-07T19:36:20;12.59;73.54
65040;HTU21D;51606;45.000;38.612;2023-05-07T19:38:46;12.57;73.54
65040;HTU21D;51606;45.000;38.612;2023-05-07T19:41:15;12.55;73.61
65040;HTU21D;51606;45.000;38.612;2023-05-07T19:43:41;12.53;73.56
65040;HTU21D;51606;45.000;38.612;2023-05-07T19:46:07;12.50;73.54
65040;HTU21D;51606;45.000;38.612;2023-05-07T19:48:34;12.50;73.54
65040;HTU21D;51606;45.000;38.612;2023-05-07T19:51:00;12.49;73.57
65040;HTU21D;51606;45.000;38.612;2023-05-07T19:53:27;12.45;73.58
65040;HTU21D;51606;45.000;38.612;2023-05-07T19:56:06;12.45;73.71
65040;HTU21D;51606;45.000;38.612;2023-05-07T19:58:33;12.43;73.61
65040;HTU21D;51606;45.000;38.612;2023-05-07T20:01:00;12.42;73.64
65040;HTU21D;51606;45.000;38.612;2023-05-07T20:03:29;12.41;73.65
65040;HTU21D;51606;45.000;38.612;2023-05-07T20:05:55;12.38;73.65
65040;HTU21D;51606;45.000;38.612;2023-05-07T20:08:22;12.37;73.66
65040;HTU21D;51606;45.000;38.612;2023-05-07T20:10:50;12.35;73.72
65040;HTU21D;51606;45.000;38.612;2023-05-07T20:13:17;12.33;73.78
65040;HTU21D;51606;45.000;38.612;2023-05-07T20:15:43;12.32;73.79
65040;HTU21D;51606;45.000;38.612;2023-05-07T20:18:11;12.29;73.83
65040;HTU21D;51606;45.000;38.612;2023-05-07T20:20:40;12.27;73.86
65040;HTU21D;51606;45.000;38.612;2023-05-07T20:23:06;12.25;73.92
65040;HTU21D;51606;45.000;38.612;2023-05-07T20:25:33;12.22;74.04
65040;HTU21D;51606;45.000;38.612;2023-05-07T20:27:59;12.21;73.99
65040;HTU21D;51606;45.000;38.612;2023-05-07T20:30:25;12.18;73.99
